createdAt,value
2017-10-31T00:00:23.364Z,978.26
2017-10-31T00:01:32.740Z,978.29
2017-10-31T00:02:41.767Z,978.28
2017-10-31T00:03:50.794Z,978.31
2017-10-31T00:04:59.817Z,978.25
2017-10-31T00:06:08.842Z,978.22
2017-10-31T00:07:17.543Z,978.25
2017-10-31T00:08:26.919Z,978.2
2017-10-31T00:09:36.608Z,978.2
2017-10-31T00:10:45.644Z,978.21
2017-10-31T00:11:55.009Z,978.21
2017-10-31T00:13:04.377Z,978.26
2017-10-31T00:14:13.739Z,978.22
2017-10-31T00:15:23.100Z,978.23
2017-10-31T00:16:32.467Z,978.18
2017-10-31T00:17:42.165Z,978.17
2017-10-31T00:18:50.852Z,978.2
2017-10-31T00:20:00.221Z,978.18
2017-10-31T00:21:09.915Z,978.18
2017-10-31T00:22:19.277Z,978.17
2017-10-31T00:23:27.977Z,978.19
2017-10-31T00:24:37.010Z,978.14
2017-10-31T00:25:46.038Z,978.16
2017-10-31T00:26:55.069Z,978.16
2017-10-31T00:28:04.442Z,978.16
2017-10-31T00:29:13.139Z,978.15
2017-10-31T00:30:22.171Z,978.15
2017-10-31T00:31:31.210Z,978.21
2017-10-31T00:32:39.905Z,978.17
2017-10-31T00:33:48.600Z,978.15
2017-10-31T00:34:57.964Z,978.17
2017-10-31T00:36:07.331Z,978.14
2017-10-31T00:37:16.031Z,978.17
2017-10-31T00:38:25.065Z,978.16
2017-10-31T00:39:33.757Z,978.18
2017-10-31T00:40:43.124Z,978.16
2017-10-31T00:41:51.818Z,978.14
2017-10-31T00:43:00.850Z,978.13
2017-10-31T00:44:09.880Z,978.14
2017-10-31T00:45:18.918Z,978.12
2017-10-31T00:46:28.279Z,978.17
2017-10-31T00:47:37.327Z,978.14
2017-10-31T00:48:46.024Z,978.13
2017-10-31T00:49:55.726Z,978.07
2017-10-31T00:51:04.762Z,978.12
2017-10-31T00:52:13.463Z,978.15
2017-10-31T00:53:22.836Z,978.16
2017-10-31T00:54:31.537Z,978.13
2017-10-31T00:55:40.231Z,978.13
2017-10-31T00:56:49.265Z,978.1
2017-10-31T00:57:58.303Z,978.13
2017-10-31T00:59:07.665Z,978.12
2017-10-31T01:00:17.362Z,978.1
2017-10-31T01:01:26.058Z,978.11
2017-10-31T01:02:35.422Z,978.11
2017-10-31T01:03:44.454Z,978.12
2017-10-31T01:04:53.813Z,978.1
2017-10-31T01:06:02.513Z,978.11
2017-10-31T01:07:12.209Z,978.08
2017-10-31T01:08:20.923Z,978.08
2017-10-31T01:09:29.933Z,978.06
2017-10-31T01:10:39.292Z,978.1
2017-10-31T01:11:48.319Z,978.07
2017-10-31T01:12:57.351Z,978.08
2017-10-31T01:14:06.378Z,978.04
2017-10-31T01:15:15.756Z,978
2017-10-31T01:16:24.784Z,978.04
2017-10-31T01:17:33.816Z,978.04
2017-10-31T01:18:42.854Z,978.03
2017-10-31T01:19:51.881Z,978.02
2017-10-31T01:21:01.256Z,978.02
2017-10-31T01:22:10.615Z,978.04
2017-10-31T01:23:19.663Z,978.01
2017-10-31T01:24:28.690Z,978.02
2017-10-31T01:25:37.386Z,978.06
2017-10-31T01:26:46.087Z,978.01
2017-10-31T01:27:56.125Z,978.03
2017-10-31T01:29:05.487Z,978
2017-10-31T01:30:14.183Z,978.02
2017-10-31T01:31:23.875Z,978.01
2017-10-31T01:32:32.569Z,978
2017-10-31T01:33:41.933Z,977.99
2017-10-31T01:34:50.966Z,977.97
2017-10-31T01:35:59.997Z,977.98
2017-10-31T01:37:09.362Z,977.96
2017-10-31T01:38:19.065Z,977.97
2017-10-31T01:39:28.775Z,977.94
2017-10-31T01:40:37.797Z,977.95
2017-10-31T01:41:47.165Z,977.92
2017-10-31T01:42:56.196Z,977.92
2017-10-31T01:44:04.892Z,977.93
2017-10-31T01:45:14.271Z,977.94
2017-10-31T01:46:23.627Z,977.93
2017-10-31T01:47:32.985Z,977.95
2017-10-31T01:48:42.014Z,977.96
2017-10-31T01:49:50.710Z,977.89
2017-10-31T01:50:59.409Z,977.92
2017-10-31T01:52:09.116Z,977.9
2017-10-31T01:53:18.818Z,977.88
2017-10-31T01:54:27.517Z,977.86
2017-10-31T01:55:36.545Z,977.88
2017-10-31T01:56:45.578Z,977.87
2017-10-31T01:57:54.607Z,977.85
2017-10-31T01:59:03.971Z,977.88
2017-10-31T02:00:13.330Z,977.9
2017-10-31T02:01:22.693Z,977.89
2017-10-31T02:02:32.049Z,977.87
2017-10-31T02:03:41.080Z,977.87
2017-10-31T02:04:49.778Z,977.86
2017-10-31T02:05:58.805Z,977.86
2017-10-31T02:07:08.499Z,977.86
2017-10-31T02:08:17.531Z,977.86
2017-10-31T02:09:26.231Z,977.84
2017-10-31T02:10:34.928Z,977.82
2017-10-31T02:11:43.970Z,977.84
2017-10-31T02:12:53.000Z,977.82
2017-10-31T02:14:02.359Z,977.85
2017-10-31T02:15:11.059Z,977.85
2017-10-31T02:16:20.435Z,977.85
2017-10-31T02:17:29.794Z,977.86
2017-10-31T02:18:39.836Z,977.8
2017-10-31T02:19:49.192Z,977.81
2017-10-31T02:20:58.886Z,977.83
2017-10-31T02:22:07.912Z,977.84
2017-10-31T02:23:16.611Z,977.78
2017-10-31T02:24:25.982Z,977.86
2017-10-31T02:25:34.678Z,977.83
2017-10-31T02:26:43.707Z,977.86
2017-10-31T02:27:52.406Z,977.84
2017-10-31T02:29:01.433Z,977.82
2017-10-31T02:30:10.794Z,977.82
2017-10-31T02:31:20.153Z,977.78
2017-10-31T02:32:29.186Z,977.78
2017-10-31T02:33:38.220Z,977.79
2017-10-31T02:34:47.275Z,977.78
2017-10-31T02:35:56.295Z,977.77
2017-10-31T02:37:04.989Z,977.76
2017-10-31T02:38:14.018Z,977.78
2017-10-31T02:39:22.714Z,977.78
2017-10-31T02:40:31.744Z,977.72
2017-10-31T02:41:40.781Z,977.78
2017-10-31T02:42:50.152Z,977.76
2017-10-31T02:44:00.509Z,977.74
2017-10-31T02:45:09.209Z,977.74
2017-10-31T02:46:18.565Z,977.73
2017-10-31T02:47:27.931Z,977.72
2017-10-31T02:48:37.298Z,977.74
2017-10-31T02:49:46.331Z,977.72
2017-10-31T02:50:55.697Z,977.74
2017-10-31T02:52:04.723Z,977.72
2017-10-31T02:53:14.422Z,977.77
2017-10-31T02:54:24.123Z,977.75
2017-10-31T02:55:33.850Z,977.8
2017-10-31T02:56:42.886Z,977.78
2017-10-31T02:57:52.255Z,977.79
2017-10-31T02:59:01.619Z,977.8
2017-10-31T03:00:10.653Z,977.81
2017-10-31T03:01:20.015Z,977.81
2017-10-31T03:02:29.373Z,977.82
2017-10-31T03:03:38.751Z,977.8
2017-10-31T03:04:47.780Z,977.79
2017-10-31T03:05:56.815Z,977.79
2017-10-31T03:07:05.845Z,977.79
2017-10-31T03:08:15.231Z,977.8
2017-10-31T03:09:24.591Z,977.83
2017-10-31T03:10:34.289Z,977.81
2017-10-31T03:11:43.316Z,977.83
2017-10-31T03:12:52.014Z,977.84
2017-10-31T03:14:01.063Z,977.85
2017-10-31T03:15:10.429Z,977.86
2017-10-31T03:16:19.789Z,977.82
2017-10-31T03:17:29.150Z,977.81
2017-10-31T03:18:38.508Z,977.77
2017-10-31T03:19:47.537Z,977.77
2017-10-31T03:20:56.231Z,977.73
2017-10-31T03:22:05.258Z,977.7
2017-10-31T03:23:14.290Z,977.74
2017-10-31T03:24:23.322Z,977.71
2017-10-31T03:25:32.020Z,977.73
2017-10-31T03:26:41.710Z,977.75
2017-10-31T03:27:50.737Z,977.73
2017-10-31T03:28:59.436Z,977.71
2017-10-31T03:30:08.137Z,977.72
2017-10-31T03:31:17.172Z,977.7
2017-10-31T03:32:26.203Z,977.71
2017-10-31T03:33:35.230Z,977.71
2017-10-31T03:34:44.259Z,977.69
2017-10-31T03:35:52.956Z,977.68
2017-10-31T03:37:01.982Z,977.7
2017-10-31T03:38:11.004Z,977.64
2017-10-31T03:39:19.710Z,977.67
2017-10-31T03:40:28.738Z,977.66
2017-10-31T03:41:37.777Z,977.68
2017-10-31T03:42:47.480Z,977.64
2017-10-31T03:43:57.183Z,977.68
2017-10-31T03:45:06.540Z,977.69
2017-10-31T03:46:15.237Z,977.63
2017-10-31T03:47:24.939Z,977.64
2017-10-31T03:48:34.328Z,977.64
2017-10-31T03:49:43.691Z,977.65
2017-10-31T03:50:52.722Z,977.62
2017-10-31T03:52:02.085Z,977.58
2017-10-31T03:53:11.795Z,977.61
2017-10-31T03:54:20.824Z,977.55
2017-10-31T03:55:30.186Z,977.59
2017-10-31T03:56:39.211Z,977.58
2017-10-31T03:57:47.909Z,977.51
2017-10-31T03:58:56.605Z,977.52
2017-10-31T04:00:05.965Z,977.52
2017-10-31T04:01:15.331Z,977.53
2017-10-31T04:02:24.364Z,977.56
2017-10-31T04:03:34.064Z,977.53
2017-10-31T04:04:43.419Z,977.54
2017-10-31T04:05:52.447Z,977.51
2017-10-31T04:07:01.484Z,977.55
2017-10-31T04:08:10.513Z,977.56
2017-10-31T04:09:19.544Z,977.5
2017-10-31T04:10:28.907Z,977.49
2017-10-31T04:11:38.275Z,977.44
2017-10-31T04:12:46.972Z,977.43
2017-10-31T04:13:55.668Z,977.44
2017-10-31T04:15:04.699Z,977.41
2017-10-31T04:16:13.391Z,977.41
2017-10-31T04:17:22.751Z,977.46
2017-10-31T04:18:31.455Z,977.47
2017-10-31T04:19:41.491Z,977.49
2017-10-31T04:20:51.185Z,977.48
2017-10-31T04:22:00.213Z,977.47
2017-10-31T04:23:09.248Z,977.51
2017-10-31T04:24:18.275Z,977.56
2017-10-31T04:25:26.974Z,977.58
2017-10-31T04:26:35.670Z,977.62
2017-10-31T04:27:45.364Z,977.58
2017-10-31T04:28:55.058Z,977.55
2017-10-31T04:30:04.094Z,977.54
2017-10-31T04:31:13.786Z,977.56
2017-10-31T04:32:22.816Z,977.53
2017-10-31T04:33:31.844Z,977.55
2017-10-31T04:34:40.540Z,977.55
2017-10-31T04:35:49.926Z,977.55
2017-10-31T04:36:58.965Z,977.54
2017-10-31T04:38:07.985Z,977.58
2017-10-31T04:39:17.018Z,977.57
2017-10-31T04:40:26.376Z,977.54
2017-10-31T04:41:35.403Z,977.56
2017-10-31T04:42:44.102Z,977.53
2017-10-31T04:43:53.462Z,977.49
2017-10-31T04:45:02.830Z,977.53
2017-10-31T04:46:11.861Z,977.49
2017-10-31T04:47:20.896Z,977.51
2017-10-31T04:48:30.589Z,977.53
2017-10-31T04:49:40.282Z,977.53
2017-10-31T04:50:49.652Z,977.47
2017-10-31T04:51:59.681Z,977.49
2017-10-31T04:53:08.707Z,977.46
2017-10-31T04:54:18.076Z,977.51
2017-10-31T04:55:27.440Z,977.5
2017-10-31T04:56:36.801Z,977.5
2017-10-31T04:57:45.502Z,977.52
2017-10-31T04:58:54.860Z,977.5
2017-10-31T05:00:04.222Z,977.49
2017-10-31T05:01:13.583Z,977.45
2017-10-31T05:02:23.611Z,977.43
2017-10-31T05:03:32.641Z,977.44
2017-10-31T05:04:41.338Z,977.43
2017-10-31T05:05:50.367Z,977.47
2017-10-31T05:06:59.725Z,977.47
2017-10-31T05:08:08.755Z,977.45
2017-10-31T05:09:17.781Z,977.42
2017-10-31T05:10:26.809Z,977.42
2017-10-31T05:11:36.172Z,977.37
2017-10-31T05:12:45.530Z,977.39
2017-10-31T05:13:54.570Z,977.37
2017-10-31T05:15:03.261Z,977.36
2017-10-31T05:16:12.959Z,977.38
2017-10-31T05:17:21.999Z,977.38
2017-10-31T05:18:31.024Z,977.35
2017-10-31T05:19:40.053Z,977.41
2017-10-31T05:20:50.083Z,977.42
2017-10-31T05:21:59.116Z,977.39
2017-10-31T05:23:08.143Z,977.41
2017-10-31T05:25:26.210Z,977.37
2017-10-31T05:26:35.236Z,977.39
2017-10-31T05:27:44.595Z,977.4
2017-10-31T05:28:54.631Z,977.43
2017-10-31T05:30:04.004Z,977.41
2017-10-31T05:31:13.369Z,977.41
2017-10-31T05:32:22.400Z,977.39
2017-10-31T05:33:31.429Z,977.44
2017-10-31T05:34:40.794Z,977.42
2017-10-31T05:35:49.493Z,977.41
2017-10-31T05:36:58.520Z,977.4
2017-10-31T05:38:07.547Z,977.41
2017-10-31T05:39:17.240Z,977.4
2017-10-31T05:40:26.266Z,977.44
2017-10-31T05:41:35.635Z,977.41
2017-10-31T05:42:44.332Z,977.43
2017-10-31T05:43:53.359Z,977.41
2017-10-31T05:45:02.390Z,977.39
2017-10-31T05:46:11.419Z,977.4
2017-10-31T05:47:20.776Z,977.39
2017-10-31T05:48:29.471Z,977.34
2017-10-31T05:49:38.835Z,977.32
2017-10-31T05:50:48.197Z,977.32
2017-10-31T05:51:57.575Z,977.34
2017-10-31T05:53:06.602Z,977.33
2017-10-31T05:54:15.301Z,977.4
2017-10-31T05:55:24.324Z,977.36
2017-10-31T05:56:33.047Z,977.39
2017-10-31T05:57:42.409Z,977.39
2017-10-31T05:58:51.107Z,977.4
2017-10-31T06:00:00.466Z,977.41
2017-10-31T06:01:09.495Z,977.37
2017-10-31T06:02:18.527Z,977.4
2017-10-31T06:03:27.891Z,977.44
2017-10-31T06:04:37.255Z,977.43
2017-10-31T06:05:45.946Z,977.43
2017-10-31T06:06:55.326Z,977.43
2017-10-31T06:08:04.362Z,977.46
2017-10-31T06:09:13.390Z,977.45
2017-10-31T06:10:22.091Z,977.46
2017-10-31T06:11:30.789Z,977.48
2017-10-31T06:12:39.819Z,977.48
2017-10-31T06:13:48.850Z,977.48
2017-10-31T06:14:57.547Z,977.55
2017-10-31T06:16:06.585Z,977.52
2017-10-31T06:17:15.631Z,977.55
2017-10-31T06:18:25.326Z,977.52
2017-10-31T06:19:34.697Z,977.53
2017-10-31T06:20:43.728Z,977.56
2017-10-31T06:21:53.427Z,977.55
2017-10-31T06:23:03.121Z,977.57
2017-10-31T06:24:11.819Z,977.61
2017-10-31T06:25:21.180Z,977.59
2017-10-31T06:26:29.879Z,977.56
2017-10-31T06:27:39.575Z,977.62
2017-10-31T06:28:49.275Z,977.55
2017-10-31T06:29:58.649Z,977.53
2017-10-31T06:31:08.015Z,977.55
2017-10-31T06:32:17.054Z,977.54
2017-10-31T06:33:26.414Z,977.54
2017-10-31T06:34:35.441Z,977.62
2017-10-31T06:35:44.138Z,977.62
2017-10-31T06:36:53.176Z,977.57
2017-10-31T06:38:02.210Z,977.58
2017-10-31T06:39:11.240Z,977.56
2017-10-31T06:40:20.273Z,977.54
2017-10-31T06:41:29.962Z,977.59
2017-10-31T06:42:38.665Z,977.54
2017-10-31T06:43:47.705Z,977.56
2017-10-31T06:44:57.077Z,977.54
2017-10-31T06:46:06.104Z,977.58
2017-10-31T06:47:15.133Z,977.57
2017-10-31T06:48:23.830Z,977.6
2017-10-31T06:49:32.862Z,977.6
2017-10-31T06:50:41.561Z,977.63
2017-10-31T06:51:50.591Z,977.59
2017-10-31T06:53:00.281Z,977.57
2017-10-31T06:54:09.645Z,977.65
2017-10-31T06:55:18.676Z,977.62
2017-10-31T06:56:27.378Z,977.62
2017-10-31T06:57:37.069Z,977.61
2017-10-31T06:58:46.096Z,977.61
2017-10-31T06:59:55.458Z,977.69
2017-10-31T07:01:04.822Z,977.66
2017-10-31T07:02:13.520Z,977.64
2017-10-31T07:03:22.567Z,977.71
2017-10-31T07:04:31.595Z,977.71
2017-10-31T07:05:40.642Z,977.69
2017-10-31T07:06:49.673Z,977.75
2017-10-31T07:07:58.367Z,977.68
2017-10-31T07:09:07.062Z,977.7
2017-10-31T07:10:15.761Z,977.67
2017-10-31T07:11:25.123Z,977.67
2017-10-31T07:12:33.822Z,977.68
2017-10-31T07:13:43.193Z,977.64
2017-10-31T07:14:52.566Z,977.63
2017-10-31T07:16:01.930Z,977.58
2017-10-31T07:17:11.630Z,977.59
2017-10-31T07:18:21.327Z,977.59
2017-10-31T07:19:30.708Z,977.52
2017-10-31T07:20:40.414Z,977.54
2017-10-31T07:21:49.779Z,977.56
2017-10-31T07:22:59.140Z,977.58
2017-10-31T07:24:07.837Z,977.62
2017-10-31T07:25:16.532Z,977.6
2017-10-31T07:26:25.894Z,977.62
2017-10-31T07:27:35.589Z,977.65
2017-10-31T07:28:44.617Z,977.67
2017-10-31T07:29:53.975Z,977.67
2017-10-31T07:31:03.001Z,977.68
2017-10-31T07:32:11.699Z,977.69
2017-10-31T07:33:20.730Z,977.7
2017-10-31T07:34:29.761Z,977.75
2017-10-31T07:35:38.792Z,977.76
2017-10-31T07:36:47.822Z,977.78
2017-10-31T07:37:56.851Z,977.75
2017-10-31T07:39:06.884Z,977.75
2017-10-31T07:40:15.584Z,977.75
2017-10-31T07:41:24.610Z,977.74
2017-10-31T07:42:33.969Z,977.74
2017-10-31T07:43:42.663Z,977.74
2017-10-31T07:44:51.690Z,977.74
2017-10-31T07:46:00.718Z,977.71
2017-10-31T07:47:09.421Z,977.76
2017-10-31T07:48:18.450Z,977.76
2017-10-31T07:49:27.147Z,977.79
2017-10-31T07:50:35.846Z,977.79
2017-10-31T07:51:45.533Z,977.83
2017-10-31T07:52:54.232Z,977.83
2017-10-31T07:54:03.258Z,977.85
2017-10-31T07:55:12.619Z,977.82
2017-10-31T07:56:21.983Z,977.85
2017-10-31T07:57:31.336Z,977.85
2017-10-31T07:58:40.369Z,977.85
2017-10-31T07:59:49.059Z,977.84
2017-10-31T08:00:58.422Z,977.87
2017-10-31T08:02:07.792Z,977.79
2017-10-31T08:03:16.820Z,977.78
2017-10-31T08:04:25.518Z,977.8
2017-10-31T08:05:34.213Z,977.84
2017-10-31T08:06:42.910Z,977.84
2017-10-31T08:07:52.615Z,977.86
2017-10-31T08:09:01.648Z,977.87
2017-10-31T08:10:10.344Z,977.83
2017-10-31T08:11:19.380Z,977.81
2017-10-31T08:12:28.416Z,977.8
2017-10-31T08:13:37.452Z,977.81
2017-10-31T08:14:46.482Z,977.82
2017-10-31T08:15:55.507Z,977.83
2017-10-31T08:17:04.202Z,977.79
2017-10-31T08:18:13.567Z,977.81
2017-10-31T08:19:22.601Z,977.8
2017-10-31T08:20:32.300Z,977.8
2017-10-31T08:21:40.996Z,977.8
2017-10-31T08:22:49.698Z,977.81
2017-10-31T08:23:58.400Z,977.8
2017-10-31T08:25:08.091Z,977.8
2017-10-31T08:26:16.793Z,977.77
2017-10-31T08:27:25.811Z,977.76
2017-10-31T08:28:34.511Z,977.78
2017-10-31T08:29:43.544Z,977.78
2017-10-31T08:30:52.573Z,977.79
2017-10-31T08:32:01.946Z,977.76
2017-10-31T08:33:10.977Z,977.79
2017-10-31T08:34:20.337Z,977.75
2017-10-31T08:35:30.046Z,977.73
2017-10-31T08:36:39.063Z,977.76
2017-10-31T08:37:48.422Z,977.71
2017-10-31T08:38:57.121Z,977.71
2017-10-31T08:40:06.146Z,977.71
2017-10-31T08:41:15.176Z,977.69
2017-10-31T08:42:23.872Z,977.65
2017-10-31T08:43:32.899Z,977.75
2017-10-31T08:44:41.596Z,977.72
2017-10-31T08:45:50.641Z,977.7
2017-10-31T08:47:00.007Z,977.69
2017-10-31T08:48:09.058Z,977.7
2017-10-31T08:49:18.069Z,977.68
2017-10-31T08:50:27.098Z,977.72
2017-10-31T08:51:35.797Z,977.74
2017-10-31T08:52:45.162Z,977.74
2017-10-31T08:53:54.199Z,977.78
2017-10-31T08:55:03.227Z,977.77
2017-10-31T08:56:12.919Z,977.77
2017-10-31T08:57:22.277Z,977.73
2017-10-31T08:58:31.639Z,977.77
2017-10-31T08:59:41.335Z,977.78
2017-10-31T09:00:50.699Z,977.79
2017-10-31T09:01:59.725Z,977.84
2017-10-31T09:03:08.422Z,977.84
2017-10-31T09:04:17.115Z,977.78
2017-10-31T09:05:26.475Z,977.81
2017-10-31T09:06:35.504Z,977.79
2017-10-31T09:07:44.532Z,977.79
2017-10-31T09:08:53.562Z,977.82
2017-10-31T09:10:02.260Z,977.83
2017-10-31T09:11:11.290Z,977.84
2017-10-31T09:12:20.316Z,977.8
2017-10-31T09:13:29.344Z,977.84
2017-10-31T09:14:38.371Z,977.85
2017-10-31T09:15:47.728Z,977.86
2017-10-31T09:16:56.760Z,977.86
2017-10-31T09:18:05.457Z,977.87
2017-10-31T09:19:14.153Z,977.87
2017-10-31T09:20:23.523Z,977.87
2017-10-31T09:21:32.887Z,977.92
2017-10-31T09:22:42.244Z,977.92
2017-10-31T09:23:51.274Z,977.88
2017-10-31T09:25:01.327Z,977.88
2017-10-31T09:26:11.027Z,977.87
2017-10-31T09:27:20.394Z,977.84
2017-10-31T09:28:29.424Z,977.88
2017-10-31T09:29:38.792Z,977.86
2017-10-31T09:30:47.501Z,977.85
2017-10-31T09:31:56.531Z,977.87
2017-10-31T09:33:05.560Z,977.87
2017-10-31T09:34:15.262Z,977.84
2017-10-31T09:35:24.959Z,977.86
2017-10-31T09:36:34.322Z,977.83
2017-10-31T09:37:43.685Z,977.8
2017-10-31T09:38:52.715Z,977.77
2017-10-31T09:40:01.749Z,977.76
2017-10-31T09:41:10.765Z,977.75
2017-10-31T09:42:19.796Z,977.79
2017-10-31T09:43:29.488Z,977.79
2017-10-31T09:44:38.186Z,977.74
2017-10-31T09:45:47.553Z,977.72
2017-10-31T09:46:57.244Z,977.72
2017-10-31T09:48:06.643Z,977.76
2017-10-31T09:49:15.669Z,977.77
2017-10-31T09:50:24.369Z,977.76
2017-10-31T09:51:33.068Z,977.78
2017-10-31T09:52:42.099Z,977.8
2017-10-31T09:53:51.467Z,977.8
2017-10-31T09:55:00.497Z,977.8
2017-10-31T09:56:09.860Z,977.8
2017-10-31T09:57:19.576Z,977.81
2017-10-31T09:58:28.939Z,977.74
2017-10-31T09:59:38.975Z,977.71
2017-10-31T10:00:47.677Z,977.72
2017-10-31T10:01:57.035Z,977.71
2017-10-31T10:03:06.402Z,977.73
2017-10-31T10:04:15.780Z,977.71
2017-10-31T10:05:25.153Z,977.69
2017-10-31T10:06:33.849Z,977.73
2017-10-31T10:07:43.212Z,977.71
2017-10-31T10:08:52.242Z,977.71
2017-10-31T10:10:01.271Z,977.72
2017-10-31T10:11:10.301Z,977.72
2017-10-31T10:12:20.329Z,977.72
2017-10-31T10:13:29.028Z,977.72
2017-10-31T10:14:38.053Z,977.71
2017-10-31T10:15:47.420Z,977.69
2017-10-31T10:16:56.805Z,977.76
2017-10-31T10:18:05.847Z,977.71
2017-10-31T10:19:14.879Z,977.74
2017-10-31T10:20:24.250Z,977.73
2017-10-31T10:21:33.606Z,977.71
2017-10-31T10:22:42.299Z,977.68
2017-10-31T10:23:51.330Z,977.67
2017-10-31T10:25:00.025Z,977.62
2017-10-31T10:26:09.393Z,977.62
2017-10-31T10:27:18.429Z,977.61
2017-10-31T10:28:27.124Z,977.61
2017-10-31T10:29:36.157Z,977.6
2017-10-31T10:30:45.189Z,977.55
2017-10-31T10:31:54.221Z,977.54
2017-10-31T10:33:03.585Z,977.5
2017-10-31T10:34:12.947Z,977.49
2017-10-31T10:35:21.969Z,977.52
2017-10-31T10:36:31.003Z,977.51
2017-10-31T10:37:40.036Z,977.45
2017-10-31T10:38:50.408Z,977.48
2017-10-31T10:39:59.772Z,977.47
2017-10-31T10:41:09.480Z,977.46
2017-10-31T10:42:18.512Z,977.44
2017-10-31T10:43:27.208Z,977.38
2017-10-31T10:44:36.574Z,977.43
2017-10-31T10:45:45.952Z,977.44
2017-10-31T10:46:54.983Z,977.41
2017-10-31T10:48:03.679Z,977.39
2017-10-31T10:49:12.716Z,977.38
2017-10-31T10:50:22.079Z,977.4
2017-10-31T10:51:31.447Z,977.37
2017-10-31T10:52:40.478Z,977.35
2017-10-31T10:53:49.181Z,977.36
2017-10-31T10:54:59.217Z,977.36
2017-10-31T10:56:08.255Z,977.36
2017-10-31T10:57:17.950Z,977.37
2017-10-31T10:58:27.317Z,977.39
2017-10-31T10:59:37.679Z,977.34
2017-10-31T11:00:46.372Z,977.34
2017-10-31T11:01:55.403Z,977.34
2017-10-31T11:03:04.430Z,977.32
2017-10-31T11:04:13.795Z,977.33
2017-10-31T11:05:22.491Z,977.31
2017-10-31T11:06:31.521Z,977.33
2017-10-31T11:07:40.884Z,977.29
2017-10-31T11:08:49.586Z,977.28
2017-10-31T11:09:58.616Z,977.25
2017-10-31T11:11:08.310Z,977.19
2017-10-31T11:12:18.005Z,977.22
2017-10-31T11:13:26.699Z,977.19
2017-10-31T11:14:36.059Z,977.16
2017-10-31T11:15:45.423Z,977.13
2017-10-31T11:16:54.460Z,977.09
2017-10-31T11:18:03.156Z,977.08
2017-10-31T11:19:12.849Z,977.05
2017-10-31T11:20:22.214Z,977.05
2017-10-31T11:21:31.248Z,977.05
2017-10-31T11:22:40.279Z,977.04
2017-10-31T11:23:49.971Z,977.06
2017-10-31T11:24:58.999Z,977.06
2017-10-31T11:26:08.036Z,977.03
2017-10-31T11:27:17.727Z,977.07
2017-10-31T11:28:27.096Z,977.04
2017-10-31T11:29:36.131Z,977.06
2017-10-31T11:30:45.161Z,977.07
2017-10-31T11:31:54.199Z,977.01
2017-10-31T11:33:03.891Z,977.08
2017-10-31T11:34:13.256Z,977.04
2017-10-31T11:35:22.286Z,977.05
2017-10-31T11:36:32.317Z,977.07
2017-10-31T11:37:41.344Z,977.02
2017-10-31T11:38:51.039Z,977
2017-10-31T11:40:00.399Z,977
2017-10-31T11:41:09.429Z,977.04
2017-10-31T11:42:18.464Z,977.02
2017-10-31T11:43:28.150Z,976.97
2017-10-31T11:44:37.867Z,977.02
2017-10-31T11:45:47.236Z,976.98
2017-10-31T11:46:56.265Z,977.02
2017-10-31T11:48:05.632Z,976.99
2017-10-31T11:49:14.667Z,976.93
2017-10-31T11:50:23.363Z,976.94
2017-10-31T11:51:32.390Z,976.98
2017-10-31T11:52:41.423Z,976.96
2017-10-31T11:53:50.797Z,976.93
2017-10-31T11:54:59.826Z,976.92
2017-10-31T11:56:09.186Z,976.91
2017-10-31T11:57:17.882Z,976.85
2017-10-31T11:58:26.584Z,976.86
2017-10-31T11:59:35.609Z,976.88
2017-10-31T12:00:44.971Z,976.87
2017-10-31T12:01:54.008Z,976.89
2017-10-31T12:03:03.373Z,976.85
2017-10-31T12:04:12.744Z,976.79
2017-10-31T12:05:21.769Z,976.83
2017-10-31T12:06:31.282Z,976.81
2017-10-31T12:07:40.313Z,976.8
2017-10-31T12:08:49.342Z,976.74
2017-10-31T12:09:58.701Z,976.74
2017-10-31T12:11:07.740Z,976.77
2017-10-31T12:12:16.439Z,976.74
2017-10-31T12:13:25.134Z,976.69
2017-10-31T12:14:34.495Z,976.75
2017-10-31T12:15:43.522Z,976.68
2017-10-31T12:16:53.559Z,976.71
2017-10-31T12:18:03.596Z,976.74
2017-10-31T12:19:12.622Z,976.76
2017-10-31T12:20:21.319Z,976.75
2017-10-31T12:21:30.347Z,976.71
2017-10-31T12:22:39.040Z,976.74
2017-10-31T12:23:47.735Z,976.71
2017-10-31T12:24:56.763Z,976.65
2017-10-31T12:26:06.126Z,976.7
2017-10-31T12:27:14.822Z,976.68
2017-10-31T12:28:23.529Z,976.75
2017-10-31T12:29:32.891Z,976.72
2017-10-31T12:30:42.327Z,976.68
2017-10-31T12:31:51.028Z,976.69
2017-10-31T12:33:00.064Z,976.73
2017-10-31T12:34:09.422Z,976.69
2017-10-31T12:35:18.124Z,976.73
2017-10-31T12:36:27.494Z,976.73
2017-10-31T12:37:36.558Z,976.69
2017-10-31T12:38:45.921Z,976.69
2017-10-31T12:39:54.953Z,976.71
2017-10-31T12:41:03.983Z,976.73
2017-10-31T12:42:13.338Z,976.71
2017-10-31T12:43:22.696Z,976.7
2017-10-31T12:44:32.060Z,976.65
2017-10-31T12:45:40.755Z,976.71
2017-10-31T12:46:49.453Z,976.65
2017-10-31T12:47:58.154Z,976.64
2017-10-31T12:49:07.184Z,976.66
2017-10-31T12:50:16.219Z,976.64
2017-10-31T12:51:24.918Z,976.58
2017-10-31T12:52:33.948Z,976.57
2017-10-31T12:53:43.306Z,976.6
2017-10-31T12:54:52.667Z,976.59
2017-10-31T12:56:01.702Z,976.62
2017-10-31T12:57:11.059Z,976.61
2017-10-31T12:58:20.093Z,976.58
2017-10-31T12:59:29.131Z,976.56
2017-10-31T13:00:38.157Z,976.6
2017-10-31T13:01:47.189Z,976.59
2017-10-31T13:02:56.551Z,976.56
2017-10-31T13:04:05.582Z,976.54
2017-10-31T13:05:14.292Z,976.57
2017-10-31T13:06:23.991Z,976.51
2017-10-31T13:07:33.360Z,976.51
2017-10-31T13:08:42.716Z,976.53
2017-10-31T13:09:51.420Z,976.51
2017-10-31T13:11:00.449Z,976.5
2017-10-31T13:12:09.148Z,976.57
2017-10-31T13:13:18.513Z,976.52
2017-10-31T13:14:27.879Z,976.49
2017-10-31T13:15:37.578Z,976.53
2017-10-31T13:16:46.611Z,976.51
2017-10-31T13:17:55.648Z,976.45
2017-10-31T13:19:05.005Z,976.47
2017-10-31T13:20:14.036Z,976.45
2017-10-31T13:21:23.068Z,976.42
2017-10-31T13:22:32.098Z,976.44
2017-10-31T13:23:40.791Z,976.38
2017-10-31T13:24:50.486Z,976.36
2017-10-31T13:25:59.851Z,976.38
2017-10-31T13:27:08.888Z,976.41
2017-10-31T13:28:18.256Z,976.45
2017-10-31T13:29:27.275Z,976.43
2017-10-31T13:30:35.977Z,976.37
2017-10-31T13:31:45.673Z,976.37
2017-10-31T13:32:55.707Z,976.37
2017-10-31T13:34:04.744Z,976.39
2017-10-31T13:35:14.114Z,976.37
2017-10-31T13:36:23.142Z,976.35
2017-10-31T13:37:32.173Z,976.38
2017-10-31T13:38:40.866Z,976.39
2017-10-31T13:39:50.559Z,976.37
2017-10-31T13:40:59.587Z,976.33
2017-10-31T13:42:08.615Z,976.36
2017-10-31T13:43:17.644Z,976.38
2017-10-31T13:44:26.672Z,976.38
2017-10-31T13:45:36.042Z,976.35
2017-10-31T13:46:45.072Z,976.35
2017-10-31T13:47:54.762Z,976.32
2017-10-31T13:49:03.794Z,976.35
2017-10-31T13:50:12.839Z,976.35
2017-10-31T13:51:21.538Z,976.29
2017-10-31T13:52:30.910Z,976.28
2017-10-31T13:53:39.939Z,976.24
2017-10-31T13:54:49.298Z,976.22
2017-10-31T13:55:57.995Z,976.17
2017-10-31T13:57:07.364Z,976.19
2017-10-31T13:58:16.390Z,976.16
2017-10-31T13:59:25.090Z,976.16
2017-10-31T14:00:34.455Z,976.13
2017-10-31T14:01:43.813Z,976.15
2017-10-31T14:02:52.850Z,976.18
2017-10-31T14:04:01.549Z,976.19
2017-10-31T14:05:10.584Z,976.2
2017-10-31T14:06:19.955Z,976.24
2017-10-31T14:07:28.987Z,976.23
2017-10-31T14:08:37.686Z,976.14
2017-10-31T14:09:46.716Z,976.11
2017-10-31T14:10:56.079Z,976.16
2017-10-31T14:12:05.109Z,976.21
2017-10-31T14:13:14.145Z,976.23
2017-10-31T14:14:23.842Z,976.25
2017-10-31T14:15:32.872Z,976.18
2017-10-31T14:16:41.902Z,976.16
2017-10-31T14:17:50.600Z,976.16
2017-10-31T14:18:59.637Z,976.13
2017-10-31T14:20:08.338Z,976.12
2017-10-31T14:21:17.702Z,976.07
2017-10-31T14:22:26.738Z,976.11
2017-10-31T14:23:35.432Z,976.03
2017-10-31T14:24:44.128Z,976.07
2017-10-31T14:25:53.161Z,976.11